Time;durP1;ratioP1;P1;durP2;ratioP2;P2;SDS_P1;SDS_P2;PMS_P1;PMS_P2;Temp;Humidity;BMP_temperature;BMP_pressure;BME280_temperature;BME280_humidity;BME280_pressure;Samples;Min_cycle;Max_cycle;Signal;HPM_P1;HPM_P2
2022/01/01 00:02:19;;;;;;;40.53;19.98;;;12.10;99.90;;;;;;5004942;28;20050;-73
2022/01/01 00:04:45;;;;;;;43.63;21.40;;;12.10;99.90;;;;;;5007510;28;21860;-72
2022/01/01 00:07:11;;;;;;;41.30;21.77;;;11.90;99.90;;;;;;5005264;28;20428;-71
2022/01/01 00:09:38;;;;;;;45.35;20.13;;;12.00;99.90;;;;;;5006986;28;20049;-72
2022/01/01 00:12:04;;;;;;;52.92;20.60;;;12.10;99.90;;;;;;5005366;28;20132;-72
2022/01/01 00:14:31;;;;;;;44.22;20.20;;;12.10;99.90;;;;;;4989694;28;20063;-74
2022/01/01 00:16:57;;;;;;;44.25;19.88;;;12.00;99.90;;;;;;4991517;28;20427;-71
2022/01/01 00:19:22;;;;;;;42.80;19.38;;;12.20;99.90;;;;;;5009382;28;20076;-70
2022/01/01 00:21:48;;;;;;;46.92;21.13;;;12.20;99.90;;;;;;5011730;28;20045;-71
2022/01/01 00:24:14;;;;;;;41.70;19.83;;;11.90;99.90;;;;;;5011765;28;20493;-72
2022/01/01 00:26:40;;;;;;;48.67;22.17;;;12.10;99.90;;;;;;5016486;28;20029;-72
2022/01/01 00:29:06;;;;;;;45.08;21.02;;;12.20;99.90;;;;;;5012170;28;20045;-70
2022/01/01 00:31:31;;;;;;;45.80;20.95;;;12.00;99.90;;;;;;5012078;28;20038;-73
2022/01/01 00:34:00;;;;;;;44.47;19.77;;;12.10;99.90;;;;;;5012363;28;20041;-70
2022/01/01 00:36:26;;;;;;;42.67;19.95;;;12.20;99.90;;;;;;5011779;28;20585;-71
2022/01/01 00:38:52;;;;;;;46.47;19.98;;;12.10;99.90;;;;;;5012606;28;20722;-74
2022/01/01 00:41:18;;;;;;;48.55;20.42;;;12.20;99.90;;;;;;5012617;28;20385;-72
2022/01/01 00:43:44;;;;;;;49.05;21.15;;;12.00;99.90;;;;;;5016036;28;20045;-70
2022/01/01 00:46:10;;;;;;;46.35;21.52;;;11.90;99.90;;;;;;5010767;28;20615;-73
2022/01/01 00:48:36;;;;;;;48.50;23.27;;;12.10;99.90;;;;;;5013674;28;20398;-73
2022/01/01 00:51:02;;;;;;;50.35;23.98;;;12.30;99.90;;;;;;5015916;28;20041;-71
2022/01/01 00:53:28;;;;;;;50.90;22.95;;;12.30;99.90;;;;;;4994885;28;20104;-74
2022/01/01 00:55:53;;;;;;;44.58;23.58;;;11.90;99.90;;;;;;4995944;28;20050;-71
2022/01/01 00:58:19;;;;;;;56.80;25.85;;;12.10;99.90;;;;;;5012078;28;20477;-71
2022/01/01 01:00:45;;;;;;;53.72;26.42;;;12.20;99.90;;;;;;4965572;28;20409;-71
2022/01/01 01:03:12;;;;;;;56.35;28.65;;;12.20;99.90;;;;;;5010460;28;20052;-71
2022/01/01 01:05:39;;;;;;;54.90;26.10;;;12.30;99.90;;;;;;5012391;28;20037;-73
2022/01/01 01:08:09;;;;;;;57.85;27.10;;;11.90;99.90;;;;;;5011987;28;20385;-74
2022/01/01 01:10:37;;;;;;;51.50;25.50;;;11.80;99.90;;;;;;4999852;28;20699;-72
2022/01/01 01:13:03;;;;;;;63.80;25.92;;;12.10;99.90;;;;;;5015617;28;20473;-71
2022/01/01 01:15:30;;;;;;;52.28;26.42;;;12.10;99.90;;;;;;5033992;28;20075;-74
2022/01/01 01:17:57;;;;;;;54.42;25.05;;;12.00;99.90;;;;;;4996251;28;20075;-72
2022/01/01 01:20:24;;;;;;;59.67;24.35;;;12.10;99.90;;;;;;5016331;28;20524;-73
2022/01/01 01:22:50;;;;;;;52.38;23.38;;;11.80;99.90;;;;;;5011503;28;20096;-70
2022/01/01 01:25:16;;;;;;;54.88;23.27;;;11.70;99.90;;;;;;4994181;28;20626;-72
2022/01/01 01:27:42;;;;;;;43.42;21.77;;;11.90;99.90;;;;;;5011401;28;20546;-70
2022/01/01 01:30:12;;;;;;;48.05;20.33;;;11.90;99.90;;;;;;5010952;28;20057;-72
2022/01/01 01:32:38;;;;;;;48.08;20.27;;;11.90;99.90;;;;;;5013696;28;20034;-72
2022/01/01 01:35:05;;;;;;;50.47;19.63;;;11.90;99.90;;;;;;5011066;28;20033;-73
2022/01/01 01:37:31;;;;;;;53.67;19.63;;;11.90;99.90;;;;;;4996618;28;20060;-73
2022/01/01 01:39:57;;;;;;;42.60;18.48;;;11.90;99.90;;;;;;5013762;28;20068;-72
2022/01/01 01:42:24;;;;;;;38.90;18.15;;;11.50;99.90;;;;;;4997367;28;20060;-70
2022/01/01 01:44:53;;;;;;;45.95;18.10;;;11.40;99.90;;;;;;5013621;28;20397;-70
2022/01/01 01:47:27;;;;;;;50.30;20.70;;;11.80;99.90;;;;;;4999896;28;20044;-70
2022/01/01 01:49:54;;;;;;;42.92;19.42;;;11.80;99.90;;;;;;5012547;28;20119;-71
2022/01/01 01:52:20;;;;;;;52.70;20.40;;;11.70;99.90;;;;;;5009633;28;20065;-70
2022/01/01 01:54:47;;;;;;;55.53;22.15;;;11.70;99.90;;;;;;5013268;28;20068;-71
2022/01/01 01:57:13;;;;;;;49.42;20.95;;;11.70;99.90;;;;;;5012936;28;20025;-71
2022/01/01 01:59:40;;;;;;;50.72;21.48;;;12.00;99.90;;;;;;4979910;28;20666;-70
2022/01/01 02:02:07;;;;;;;54.22;21.60;;;12.00;99.90;;;;;;5012226;28;20451;-71
2022/01/01 02:04:33;;;;;;;49.33;19.20;;;12.20;99.90;;;;;;5010705;28;20038;-72
2022/01/01 02:06:59;;;;;;;57.58;20.48;;;11.90;99.90;;;;;;5011084;28;20128;-72
2022/01/01 02:09:25;;;;;;;49.83;19.15;;;11.70;99.90;;;;;;4995486;28;20037;-71
2022/01/01 02:11:54;;;;;;;43.88;19.63;;;11.90;99.90;;;;;;5011087;28;20052;-70
2022/01/01 02:14:35;;;;;;;50.85;20.15;;;12.10;99.90;;;;;;5013730;28;20064;-71
2022/01/01 02:19:28;;;;;;;50.28;23.58;;;12.00;99.90;;;;;;4998880;28;20569;-69
2022/01/01 02:21:57;;;;;;;61.92;24.88;;;11.90;99.90;;;;;;5014979;28;20079;-72
2022/01/01 02:24:24;;;;;;;65.00;24.85;;;12.20;99.90;;;;;;5031072;28;20094;-72
2022/01/01 02:26:50;;;;;;;61.78;23.95;;;12.20;99.90;;;;;;5014526;28;20124;-70
2022/01/01 02:29:15;;;;;;;53.70;25.23;;;12.20;99.90;;;;;;4981424;28;20124;-73
2022/01/01 02:31:41;;;;;;;72.40;27.08;;;12.10;99.90;;;;;;5013735;28;20065;-69
2022/01/01 02:34:08;;;;;;;65.97;27.45;;;11.80;99.90;;;;;;5013545;28;20073;-69
2022/01/01 02:36:36;;;;;;;76.32;31.77;;;12.10;99.90;;;;;;5013857;28;20033;-74
2022/01/01 02:39:20;;;;;;;76.95;31.48;;;12.20;99.90;;;;;;5014175;28;20497;-74
2022/01/01 02:41:50;;;;;;;74.07;31.23;;;12.40;99.90;;;;;;4997953;28;20478;-70
2022/01/01 02:44:15;;;;;;;74.53;33.60;;;12.30;99.90;;;;;;5029670;28;20066;-73
2022/01/01 02:46:41;;;;;;;80.70;33.47;;;12.40;99.90;;;;;;5015324;28;20045;-73
2022/01/01 02:49:07;;;;;;;78.55;33.50;;;12.10;99.90;;;;;;5013198;28;20072;-73
2022/01/01 02:51:33;;;;;;;71.30;34.05;;;12.10;99.90;;;;;;5013236;28;20042;-73
2022/01/01 02:53:59;;;;;;;91.57;36.35;;;12.20;99.90;;;;;;5013811;28;20091;-73
2022/01/01 02:56:25;;;;;;;78.63;32.72;;;12.30;99.90;;;;;;5013460;28;20057;-69
2022/01/01 02:58:51;;;;;;;78.20;32.55;;;12.20;99.90;;;;;;5013949;28;20156;-72
2022/01/01 03:01:18;;;;;;;77.55;30.63;;;12.40;99.90;;;;;;4996894;28;20107;-70
2022/01/01 03:03:43;;;;;;;69.93;29.17;;;12.30;99.90;;;;;;5013993;28;20476;-70
2022/01/01 03:06:09;;;;;;;77.15;30.75;;;12.30;99.90;;;;;;5013758;28;20191;-69
2022/01/01 03:08:35;;;;;;;78.03;28.60;;;12.10;99.90;;;;;;4996434;28;20390;-70
2022/01/01 03:11:05;;;;;;;64.80;28.10;;;12.50;99.90;;;;;;4997781;28;20044;-71
2022/01/01 03:13:31;;;;;;;72.28;28.00;;;12.00;99.90;;;;;;5013218;28;20455;-71
2022/01/01 03:15:57;;;;;;;90.93;36.50;;;12.10;99.90;;;;;;5014861;28;20120;-70
2022/01/01 03:18:23;;;;;;;68.28;30.63;;;12.40;99.90;;;;;;5013110;28;20171;-71
2022/01/01 03:20:49;;;;;;;66.30;27.63;;;12.10;99.90;;;;;;5000936;28;20045;-69
2022/01/01 03:23:14;;;;;;;62.15;28.65;;;12.00;99.90;;;;;;5013276;28;20037;-71
2022/01/01 03:25:40;;;;;;;73.28;29.35;;;12.40;99.90;;;;;;5012557;28;20554;-72
2022/01/01 03:28:06;;;;;;;68.55;29.67;;;12.40;99.90;;;;;;5012639;28;20490;-72
2022/01/01 03:30:32;;;;;;;68.18;30.27;;;12.40;99.90;;;;;;5012672;28;20051;-72
2022/01/01 03:32:58;;;;;;;73.63;31.35;;;12.40;99.90;;;;;;5013650;28;20041;-72
2022/01/01 03:35:24;;;;;;;79.13;31.77;;;12.30;99.90;;;;;;4996517;28;20042;-72
2022/01/01 03:37:50;;;;;;;64.10;31.15;;;12.10;99.90;;;;;;4998425;28;20389;-69
2022/01/01 03:40:16;;;;;;;78.60;33.80;;;12.00;99.90;;;;;;5012301;28;20081;-72
2022/01/01 03:42:41;;;;;;;76.40;32.20;;;12.20;99.90;;;;;;5009623;28;20037;-72
2022/01/01 03:45:08;;;;;;;70.32;32.05;;;12.00;99.90;;;;;;5011902;28;20044;-72
2022/01/01 03:47:34;;;;;;;66.63;30.33;;;12.30;99.90;;;;;;5011967;28;20049;-69
2022/01/01 03:50:00;;;;;;;74.60;33.35;;;12.00;99.90;;;;;;5011735;28;20041;-71
2022/01/01 03:52:26;;;;;;;62.15;30.08;;;12.00;99.90;;;;;;5011114;28;20445;-71
2022/01/01 03:54:52;;;;;;;70.38;30.23;;;12.30;99.90;;;;;;4995867;28;20049;-71
2022/01/01 03:57:20;;;;;;;69.65;30.77;;;12.10;99.90;;;;;;5012079;28;20045;-71
2022/01/01 03:59:47;;;;;;;62.22;28.88;;;12.10;99.90;;;;;;5012094;28;20053;-72
2022/01/01 04:02:14;;;;;;;70.53;27.73;;;12.30;99.90;;;;;;4995894;28;20558;-71
2022/01/01 04:04:40;;;;;;;55.88;27.95;;;12.20;99.90;;;;;;4994029;28;20046;-69
2022/01/01 04:07:08;;;;;;;70.75;29.90;;;12.00;99.90;;;;;;5011855;28;20037;-72
2022/01/01 04:09:34;;;;;;;61.97;26.95;;;12.00;99.90;;;;;;5011719;28;20049;-71
2022/01/01 04:12:00;;;;;;;61.80;26.48;;;12.10;99.90;;;;;;5012311;28;20052;-69
2022/01/01 04:14:25;;;;;;;63.80;27.25;;;12.30;99.90;;;;;;5012176;28;20041;-72
2022/01/01 04:16:53;;;;;;;66.47;27.52;;;11.90;99.90;;;;;;4998375;28;20048;-72
2022/01/01 04:19:20;;;;;;;61.95;24.63;;;12.00;99.90;;;;;;5002916;28;20041;-71
2022/01/01 04:21:46;;;;;;;61.03;25.80;;;12.10;99.90;;;;;;4996848;28;20049;-71
2022/01/01 04:24:12;;;;;;;67.95;25.23;;;11.90;99.90;;;;;;5013504;28;20120;-72
2022/01/01 04:26:38;;;;;;;64.55;26.30;;;12.20;99.90;;;;;;5012665;28;20132;-70
2022/01/01 04:29:04;;;;;;;60.88;26.55;;;11.90;99.90;;;;;;5013888;28;20429;-74
2022/01/01 04:31:30;;;;;;;56.30;26.48;;;11.80;99.90;;;;;;5011601;28;20129;-70
2022/01/01 04:33:55;;;;;;;63.97;28.58;;;12.10;99.90;;;;;;5011914;28;20472;-71
2022/01/01 04:36:22;;;;;;;59.88;26.77;;;12.00;99.90;;;;;;4995783;28;20045;-72
2022/01/01 04:38:47;;;;;;;59.42;27.20;;;11.90;99.90;;;;;;5012908;28;20485;-69
2022/01/01 04:41:15;;;;;;;66.30;28.55;;;12.10;99.90;;;;;;5011725;28;20084;-69
2022/01/01 04:43:42;;;;;;;72.50;30.67;;;12.00;99.90;;;;;;5011999;28;20050;-71
2022/01/01 04:46:08;;;;;;;63.80;28.63;;;12.00;99.90;;;;;;5013627;28;20044;-70
2022/01/01 04:48:37;;;;;;;61.60;29.00;;;11.90;99.90;;;;;;5008731;28;20038;-72
2022/01/01 04:51:11;;;;;;;69.80;32.05;;;12.20;99.90;;;;;;5010920;28;20040;-72
2022/01/01 04:53:43;;;;;;;72.95;33.20;;;11.90;99.90;;;;;;5010618;28;20045;-73
2022/01/01 04:56:09;;;;;;;66.30;31.48;;;12.00;99.90;;;;;;5009787;28;20044;-70
2022/01/01 04:58:35;;;;;;;66.40;31.55;;;12.00;99.90;;;;;;5011050;28;20033;-71
2022/01/01 05:01:01;;;;;;;79.55;33.92;;;12.20;99.90;;;;;;5011644;28;20068;-72
2022/01/01 05:03:27;;;;;;;66.78;32.58;;;11.90;99.90;;;;;;5010986;28;20443;-70
2022/01/01 05:05:52;;;;;;;74.53;35.42;;;11.80;99.90;;;;;;5007882;28;20041;-72
2022/01/01 05:08:18;;;;;;;74.40;34.20;;;11.80;99.90;;;;;;4979372;28;20111;-69
2022/01/01 05:10:43;;;;;;;78.85;37.30;;;12.00;99.90;;;;;;4994556;28;20087;-71
2022/01/01 05:13:09;;;;;;;83.75;39.65;;;11.80;99.90;;;;;;4996770;28;20041;-73
2022/01/01 05:15:35;;;;;;;78.75;41.15;;;11.90;99.90;;;;;;4979587;28;20100;-70
2022/01/01 05:18:01;;;;;;;89.70;43.35;;;12.00;99.90;;;;;;5012714;28;20500;-70
2022/01/01 05:20:27;;;;;;;94.25;46.53;;;11.90;99.90;;;;;;5010625;28;20109;-71
2022/01/01 05:22:52;;;;;;;84.68;43.67;;;11.90;99.90;;;;;;5011502;28;20099;-71
2022/01/01 05:25:18;;;;;;;91.15;44.22;;;12.00;99.90;;;;;;5011430;28;20071;-72
2022/01/01 05:27:44;;;;;;;88.18;45.20;;;12.30;99.90;;;;;;5010977;28;20124;-72
2022/01/01 05:30:10;;;;;;;90.60;44.83;;;12.20;99.90;;;;;;4997334;28;20037;-72
2022/01/01 05:32:36;;;;;;;98.50;48.63;;;12.10;99.90;;;;;;5009885;28;20056;-72
2022/01/01 05:35:02;;;;;;;92.45;45.80;;;12.30;99.90;;;;;;5010123;28;20473;-71
2022/01/01 05:37:28;;;;;;;89.68;44.83;;;12.00;99.90;;;;;;5012773;28;20041;-72
2022/01/01 05:39:54;;;;;;;95.85;46.72;;;12.00;99.90;;;;;;5013228;28;20069;-68
2022/01/01 05:42:20;;;;;;;89.05;43.72;;;12.10;99.90;;;;;;4994887;28;20041;-74
2022/01/01 05:44:45;;;;;;;102.93;49.08;;;12.20;99.90;;;;;;5009737;28;20037;-71
2022/01/01 05:47:11;;;;;;;92.97;46.85;;;12.00;99.90;;;;;;5011030;28;20076;-73
2022/01/01 05:49:37;;;;;;;104.50;50.67;;;12.00;99.90;;;;;;5015189;28;20048;-72
2022/01/01 05:52:03;;;;;;;97.60;47.83;;;11.90;99.90;;;;;;5014601;28;20047;-70
2022/01/01 05:54:28;;;;;;;91.00;46.28;;;12.10;99.90;;;;;;5014826;28;20041;-71
2022/01/01 05:56:54;;;;;;;86.60;45.83;;;12.00;99.90;;;;;;5016296;28;20453;-73
2022/01/01 05:59:20;;;;;;;84.63;43.95;;;12.10;99.90;;;;;;4998886;28;20037;-73
2022/01/01 06:01:45;;;;;;;91.50;44.25;;;12.10;99.90;;;;;;5012439;28;20045;-70
2022/01/01 06:04:11;;;;;;;79.60;40.33;;;12.00;99.90;;;;;;5014645;28;20453;-69
2022/01/01 06:06:37;;;;;;;78.20;40.33;;;12.30;99.90;;;;;;5014389;28;20412;-73
2022/01/01 06:09:02;;;;;;;80.05;36.92;;;12.20;99.90;;;;;;5014786;28;20117;-71
2022/01/01 06:11:28;;;;;;;75.78;36.42;;;12.20;99.90;;;;;;5000119;28;20099;-69
2022/01/01 06:13:54;;;;;;;67.30;34.03;;;12.20;99.90;;;;;;5014721;28;20030;-69
2022/01/01 06:16:19;;;;;;;74.85;32.67;;;12.30;99.90;;;;;;5015163;28;20037;-74
2022/01/01 06:18:45;;;;;;;68.07;32.63;;;12.00;99.90;;;;;;5014380;28;20095;-71
2022/01/01 06:21:11;;;;;;;65.82;31.40;;;12.30;99.90;;;;;;5016260;28;20226;-70
2022/01/01 06:23:37;;;;;;;69.75;32.03;;;12.00;99.90;;;;;;5015044;28;20043;-72
2022/01/01 06:26:07;;;;;;;64.63;30.23;;;12.30;99.90;;;;;;5014205;28;20041;-71
2022/01/01 06:28:33;;;;;;;71.10;27.63;;;12.00;99.90;;;;;;5014086;28;20045;-71
2022/01/01 06:30:59;;;;;;;60.65;26.52;;;12.20;99.90;;;;;;5015203;28;20046;-72
2022/01/01 06:33:25;;;;;;;70.78;28.38;;;12.30;99.90;;;;;;4999671;28;20386;-70
2022/01/01 06:35:50;;;;;;;55.13;25.08;;;12.20;99.90;;;;;;4997125;28;20041;-71
2022/01/01 06:38:16;;;;;;;58.35;25.98;;;12.30;99.90;;;;;;5013687;28;20060;-72
2022/01/01 06:40:43;;;;;;;71.25;27.15;;;12.00;99.90;;;;;;4997167;28;20156;-71
2022/01/01 06:43:12;;;;;;;58.45;24.40;;;12.30;99.90;;;;;;5030242;28;20420;-74
2022/01/01 06:45:38;;;;;;;60.45;23.83;;;12.40;99.90;;;;;;5014473;28;20400;-70
2022/01/01 06:48:04;;;;;;;56.53;24.35;;;12.40;99.90;;;;;;5030394;28;20044;-71
2022/01/01 06:50:30;;;;;;;68.13;26.42;;;12.10;99.90;;;;;;4996967;28;20397;-72
2022/01/01 06:52:56;;;;;;;52.42;22.23;;;12.60;99.90;;;;;;5012051;28;20050;-72
2022/01/01 06:55:21;;;;;;;59.35;22.00;;;12.40;99.90;;;;;;4996451;28;20052;-69
2022/01/01 06:57:47;;;;;;;55.58;22.55;;;12.70;99.90;;;;;;5012126;28;20041;-73
2022/01/01 07:00:14;;;;;;;52.40;21.40;;;12.60;99.90;;;;;;5002960;28;20418;-73
2022/01/01 07:02:41;;;;;;;51.08;22.42;;;12.80;99.90;;;;;;5013216;28;20029;-73
2022/01/01 07:05:08;;;;;;;57.08;21.30;;;12.60;99.90;;;;;;5012308;28;20056;-74
2022/01/01 07:07:34;;;;;;;53.08;20.17;;;12.60;99.90;;;;;;5012992;28;20080;-71
2022/01/01 07:10:00;;;;;;;51.30;19.88;;;12.80;99.90;;;;;;5012170;28;20100;-70
2022/01/01 07:12:25;;;;;;;52.00;19.08;;;12.40;99.90;;;;;;5014794;28;20121;-72
2022/01/01 07:14:51;;;;;;;48.00;18.00;;;12.80;99.90;;;;;;5005212;28;20041;-70
2022/01/01 07:17:17;;;;;;;50.95;17.58;;;12.50;99.90;;;;;;5012364;28;20117;-69
2022/01/01 07:19:42;;;;;;;50.45;18.90;;;12.50;99.90;;;;;;5009601;28;20053;-69
2022/01/01 07:22:08;;;;;;;49.15;19.48;;;12.80;99.90;;;;;;5011549;28;20061;-72
2022/01/01 07:24:34;;;;;;;52.85;20.23;;;13.00;99.90;;;;;;5014071;28;20050;-70
2022/01/01 07:26:59;;;;;;;51.70;19.92;;;12.90;99.90;;;;;;5011421;28;20673;-70
2022/01/01 07:29:25;;;;;;;51.35;18.73;;;12.40;99.90;;;;;;5012138;28;20065;-71
2022/01/01 07:31:53;;;;;;;47.53;18.83;;;12.90;99.90;;;;;;5010927;28;20132;-70
2022/01/01 07:34:20;;;;;;;49.22;18.73;;;12.50;99.90;;;;;;5011110;28;20041;-70
2022/01/01 07:36:46;;;;;;;62.58;22.50;;;12.70;99.90;;;;;;5010928;28;20045;-73
2022/01/01 07:39:12;;;;;;;52.63;21.25;;;12.80;99.90;;;;;;5011566;28;20057;-73
2022/01/01 07:41:39;;;;;;;58.45;22.45;;;12.70;99.90;;;;;;5011061;28;20406;-71
2022/01/01 07:44:05;;;;;;;56.55;22.10;;;12.90;99.90;;;;;;5012728;28;20045;-69
2022/01/01 07:46:31;;;;;;;60.60;22.30;;;12.60;99.90;;;;;;5007631;28;20128;-74
2022/01/01 07:48:57;;;;;;;55.13;22.58;;;12.80;99.90;;;;;;5006747;28;20282;-69
2022/01/01 07:51:23;;;;;;;59.88;21.10;;;13.10;99.90;;;;;;4996428;28;20120;-72
2022/01/01 07:53:48;;;;;;;57.40;22.60;;;13.10;99.90;;;;;;5014611;28;20137;-71
2022/01/01 07:56:14;;;;;;;48.08;22.00;;;12.70;99.90;;;;;;5014972;28;20084;-71
2022/01/01 07:58:40;;;;;;;51.90;21.30;;;12.70;99.90;;;;;;5013665;28;20041;-69
2022/01/01 08:01:05;;;;;;;59.67;22.17;;;12.90;99.90;;;;;;5014483;28;20041;-71
2022/01/01 08:03:31;;;;;;;54.28;19.15;;;12.90;99.90;;;;;;5012223;28;20046;-70
2022/01/01 08:05:57;;;;;;;57.97;21.73;;;13.20;99.90;;;;;;5012923;28;20392;-70
2022/01/01 08:08:23;;;;;;;50.22;19.70;;;12.70;99.90;;;;;;4996630;28;20069;-70
2022/01/01 08:10:49;;;;;;;59.78;21.23;;;13.30;99.90;;;;;;5011986;28;20049;-70
2022/01/01 08:13:22;;;;;;;52.03;20.45;;;13.20;99.90;;;;;;5012715;28;20045;-71
2022/01/01 08:15:49;;;;;;;55.03;21.85;;;12.90;99.90;;;;;;5013970;28;20508;-68
2022/01/01 08:18:15;;;;;;;56.88;21.90;;;12.80;99.90;;;;;;5008051;28;20033;-68
2022/01/01 08:20:41;;;;;;;54.13;21.63;;;13.40;99.90;;;;;;5012535;28;20041;-71
2022/01/01 08:23:07;;;;;;;51.70;21.80;;;13.50;99.90;;;;;;4999081;28;20029;-72
2022/01/01 08:25:33;;;;;;;55.20;22.13;;;13.20;99.90;;;;;;4996987;28;20400;-72
2022/01/01 08:27:59;;;;;;;45.47;20.55;;;13.30;99.90;;;;;;4996562;28;20045;-69
2022/01/01 08:30:25;;;;;;;54.65;21.02;;;12.90;99.90;;;;;;5012683;28;20375;-73
2022/01/01 08:32:50;;;;;;;51.45;21.23;;;13.20;99.90;;;;;;4981043;28;20044;-71
2022/01/01 08:35:16;;;;;;;54.50;22.45;;;12.90;99.90;;;;;;5014928;28;20045;-71
2022/01/01 08:37:42;;;;;;;51.97;21.30;;;13.10;99.90;;;;;;5012800;28;20519;-73
2022/01/01 08:40:08;;;;;;;50.83;21.20;;;13.20;99.90;;;;;;5013060;28;20045;-70
2022/01/01 08:42:34;;;;;;;50.25;19.50;;;13.10;99.90;;;;;;4996423;28;20124;-71
2022/01/01 08:45:00;;;;;;;53.33;22.13;;;13.20;99.90;;;;;;5013095;28;20124;-71
2022/01/01 08:47:26;;;;;;;53.90;21.35;;;13.60;99.90;;;;;;5011836;28;20480;-70
2022/01/01 08:49:55;;;;;;;56.17;22.20;;;13.30;99.90;;;;;;5012450;28;20109;-72
2022/01/01 08:52:25;;;;;;;60.53;22.50;;;13.50;99.90;;;;;;4995856;28;20057;-72
2022/01/01 08:54:56;;;;;;;53.78;22.98;;;13.30;99.90;;;;;;4995436;28;20045;-70
2022/01/01 08:57:25;;;;;;;53.40;22.95;;;13.30;99.90;;;;;;5008631;28;21561;-71
2022/01/01 08:59:51;;;;;;;50.58;22.50;;;13.60;99.90;;;;;;5011188;28;20029;-71
2022/01/01 09:02:17;;;;;;;50.03;23.92;;;13.20;99.90;;;;;;5028836;28;20037;-70
2022/01/01 09:04:43;;;;;;;58.70;25.48;;;13.60;99.90;;;;;;5012922;28;20115;-72
2022/01/01 09:07:09;;;;;;;59.28;23.58;;;13.20;99.90;;;;;;4996304;28;20132;-72
2022/01/01 09:09:35;;;;;;;55.08;24.30;;;13.90;99.90;;;;;;5011367;28;20041;-73
2022/01/01 09:12:01;;;;;;;56.22;23.35;;;13.20;99.90;;;;;;5013360;28;20468;-71
2022/01/01 09:14:27;;;;;;;55.47;22.95;;;13.80;99.90;;;;;;5013127;28;20125;-69
2022/01/01 09:16:53;;;;;;;52.80;24.52;;;13.30;99.90;;;;;;5011742;28;20378;-73
2022/01/01 09:19:19;;;;;;;58.65;23.83;;;13.50;99.90;;;;;;4995357;28;20582;-71
2022/01/01 09:21:45;;;;;;;51.83;24.75;;;13.80;99.90;;;;;;4995652;28;20053;-70
2022/01/01 09:24:11;;;;;;;44.60;21.95;;;14.00;99.90;;;;;;5011603;28;20053;-71
2022/01/01 09:26:37;;;;;;;49.47;23.23;;;13.80;99.90;;;;;;5011485;28;20045;-71
2022/01/01 09:29:04;;;;;;;63.13;26.27;;;13.90;99.90;;;;;;4994786;28;20355;-70
2022/01/01 09:31:31;;;;;;;55.00;24.63;;;13.50;99.90;;;;;;5010467;28;20045;-73
2022/01/01 09:33:57;;;;;;;52.28;24.88;;;13.70;99.90;;;;;;5012869;28;20374;-70
2022/01/01 09:36:22;;;;;;;59.97;26.35;;;13.50;99.90;;;;;;5013984;28;20037;-71
2022/01/01 09:38:48;;;;;;;56.50;25.75;;;13.70;99.90;;;;;;4998880;28;20049;-72
2022/01/01 09:41:15;;;;;;;50.00;25.17;;;13.60;99.90;;;;;;5011814;28;20033;-74
2022/01/01 09:43:41;;;;;;;44.80;23.58;;;13.90;99.90;;;;;;5012643;28;20045;-72
2022/01/01 09:46:12;;;;;;;44.97;23.15;;;13.50;99.90;;;;;;5014633;28;20356;-71
2022/01/01 09:48:38;;;;;;;47.00;23.73;;;13.70;99.90;;;;;;5018207;28;20045;-71
2022/01/01 09:51:06;;;;;;;48.33;23.90;;;13.90;99.90;;;;;;5017361;28;20432;-69
2022/01/01 09:53:33;;;;;;;46.17;23.55;;;13.90;99.90;;;;;;5000819;28;20425;-73
2022/01/01 09:56:01;;;;;;;48.58;23.65;;;14.00;99.90;;;;;;4988601;28;20039;-71
2022/01/01 09:58:29;;;;;;;43.50;24.05;;;13.80;99.90;;;;;;5009520;28;20044;-70
2022/01/01 10:00:55;;;;;;;48.65;24.42;;;13.80;99.90;;;;;;5012164;28;20365;-72
2022/01/01 10:03:41;;;;;;;36.38;20.58;;;13.80;99.90;;;;;;4994746;28;20034;-69
2022/01/01 10:06:12;;;;;;;34.63;21.33;;;13.60;99.90;;;;;;5009770;28;20033;-72
2022/01/01 10:08:45;;;;;;;37.10;21.20;;;13.70;99.90;;;;;;4995033;28;20045;-72
2022/01/01 10:11:14;;;;;;;31.10;17.83;;;13.60;99.90;;;;;;5012610;28;20045;-70
2022/01/01 10:13:41;;;;;;;34.05;21.95;;;13.70;99.90;;;;;;5011653;28;20065;-73
2022/01/01 10:16:09;;;;;;;37.88;18.70;;;13.50;99.90;;;;;;5011837;28;20100;-71
2022/01/01 10:18:44;;;;;;;33.13;20.13;;;13.60;99.90;;;;;;5013376;28;20033;-74
2022/01/01 10:21:15;;;;;;;38.60;20.15;;;13.50;99.90;;;;;;5028345;28;20505;-71
2022/01/01 10:23:43;;;;;;;33.25;18.95;;;13.50;99.90;;;;;;5012838;28;20041;-71
2022/01/01 10:29:03;;;;;;;32.38;17.77;;;13.50;99.90;;;;;;5012531;28;20152;-73
2022/01/01 10:31:29;;;;;;;33.95;18.58;;;13.50;99.90;;;;;;5015896;28;20396;-73
2022/01/01 10:33:55;;;;;;;33.90;18.65;;;13.40;99.90;;;;;;5017943;28;20121;-72
2022/01/01 10:36:22;;;;;;;31.27;16.85;;;13.50;99.90;;;;;;4997898;28;20111;-73
2022/01/01 10:38:48;;;;;;;31.98;17.70;;;13.50;99.90;;;;;;5016307;28;20037;-74
2022/01/01 10:41:16;;;;;;;26.50;16.23;;;13.30;99.90;;;;;;5014587;28;20041;-71
2022/01/01 10:43:44;;;;;;;31.38;16.85;;;13.50;99.90;;;;;;4999022;28;20129;-72
2022/01/01 10:46:19;;;;;;;28.80;17.00;;;13.30;99.90;;;;;;5015553;28;20485;-75
2022/01/01 10:51:12;;;;;;;39.33;17.63;;;13.20;99.90;;;;;;5015757;28;20136;-71
2022/01/01 10:53:39;;;;;;;32.92;16.20;;;13.30;99.90;;;;;;5015575;28;20168;-71
2022/01/01 10:56:17;;;;;;;30.17;15.70;;;13.30;99.90;;;;;;4998769;28;20034;-72
2022/01/01 10:58:43;;;;;;;29.30;16.15;;;13.20;99.90;;;;;;5014889;28;20041;-74
2022/01/01 11:01:09;;;;;;;30.67;16.85;;;13.10;99.90;;;;;;5014217;28;20049;-71
2022/01/01 11:03:37;;;;;;;31.25;15.77;;;13.30;99.90;;;;;;5015202;28;20370;-70
2022/01/01 11:06:17;;;;;;;29.02;16.17;;;13.10;99.90;;;;;;4982712;28;20034;-73
2022/01/01 11:08:45;;;;;;;30.42;15.52;;;13.30;99.90;;;;;;5013983;28;20120;-72
2022/01/01 11:11:13;;;;;;;24.67;14.52;;;13.20;99.90;;;;;;5014577;28;20379;-69
2022/01/01 11:13:40;;;;;;;30.75;16.13;;;13.30;99.90;;;;;;5015320;28;20236;-72
2022/01/01 11:16:07;;;;;;;30.10;15.05;;;13.20;99.90;;;;;;5015128;28;20038;-69
2022/01/01 11:18:34;;;;;;;27.75;14.88;;;13.20;99.90;;;;;;5013465;28;20041;-69
2022/01/01 11:21:02;;;;;;;27.10;15.20;;;13.20;99.90;;;;;;4997231;28;20041;-68
2022/01/01 11:23:28;;;;;;;24.67;14.25;;;13.20;99.90;;;;;;4998628;28;20048;-70
2022/01/01 11:25:54;;;;;;;21.45;12.73;;;13.10;99.90;;;;;;5015321;28;20037;-70
2022/01/01 11:28:21;;;;;;;24.85;13.30;;;13.20;99.90;;;;;;5015167;28;20041;-73
2022/01/01 11:31:13;;;;;;;26.30;13.40;;;13.20;99.90;;;;;;5014988;28;20053;-73
2022/01/01 11:33:52;;;;;;;19.23;12.25;;;13.10;99.90;;;;;;5003260;28;20059;-70
2022/01/01 11:36:20;;;;;;;24.70;13.68;;;13.10;99.90;;;;;;5015679;28;20063;-73
2022/01/01 11:38:46;;;;;;;24.38;13.10;;;13.10;99.90;;;;;;5015362;28;20049;-74
2022/01/01 11:41:15;;;;;;;21.70;12.90;;;13.10;99.90;;;;;;5014399;28;20056;-72
2022/01/01 11:43:49;;;;;;;22.38;11.80;;;13.10;99.90;;;;;;5014372;28;20071;-71
2022/01/01 11:46:20;;;;;;;24.87;13.00;;;13.20;99.90;;;;;;5015444;28;20058;-73
2022/01/01 11:48:50;;;;;;;24.67;12.77;;;13.10;99.90;;;;;;5015514;28;20037;-73
2022/01/01 11:51:41;;;;;;;23.90;11.88;;;13.20;99.90;;;;;;5012440;28;20502;-72
2022/01/01 11:54:09;;;;;;;22.10;11.93;;;13.10;99.90;;;;;;5026509;28;20090;-71
2022/01/01 11:56:50;;;;;;;20.73;11.13;;;13.10;99.90;;;;;;5016262;28;20614;-73
2022/01/01 11:59:26;;;;;;;22.52;11.40;;;13.10;99.90;;;;;;5015856;28;20044;-71
2022/01/01 12:01:54;;;;;;;24.98;11.23;;;13.20;99.90;;;;;;5031350;28;20053;-74
2022/01/01 12:04:36;;;;;;;20.33;10.35;;;13.10;99.90;;;;;;5015893;28;20041;-72
2022/01/01 12:07:12;;;;;;;18.80;10.20;;;13.10;99.90;;;;;;5015899;28;20047;-72
2022/01/01 12:10:06;;;;;;;17.30;9.45;;;13.10;99.90;;;;;;5015630;28;20044;-71
2022/01/01 12:12:50;;;;;;;18.05;9.10;;;13.10;99.90;;;;;;5002540;28;20037;-70
2022/01/01 12:15:25;;;;;;;20.08;9.60;;;13.20;99.90;;;;;;5030148;28;20045;-73
2022/01/01 12:18:13;;;;;;;16.92;8.65;;;13.10;99.90;;;;;;5013125;28;20434;-69
2022/01/01 12:21:02;;;;;;;18.80;8.23;;;13.20;99.90;;;;;;5013468;28;20048;-71
2022/01/01 12:23:33;;;;;;;18.30;8.27;;;13.10;99.90;;;;;;5019301;28;20044;-70
2022/01/01 12:25:59;;;;;;;16.42;7.82;;;13.10;99.90;;;;;;5013876;28;20513;-73
2022/01/01 12:28:29;;;;;;;14.55;6.97;;;13.10;99.90;;;;;;5014104;28;20240;-70
2022/01/01 12:31:12;;;;;;;13.25;6.78;;;13.10;99.90;;;;;;5000094;28;20120;-72
2022/01/01 12:33:38;;;;;;;16.13;6.60;;;13.10;99.90;;;;;;5014950;28;20051;-72
2022/01/01 12:36:25;;;;;;;12.45;6.22;;;13.00;99.90;;;;;;5014358;28;20103;-71
2022/01/01 12:38:57;;;;;;;11.38;6.20;;;13.00;99.90;;;;;;4995073;28;20133;-74